createdAt,value
2022-12-17T00:01:39.599Z,74
2022-12-17T00:04:12.102Z,74
2022-12-17T00:06:43.129Z,73
2022-12-17T00:09:14.143Z,74
2022-12-17T00:11:44.890Z,75
2022-12-17T00:14:15.742Z,74
2022-12-17T00:16:46.320Z,74
2022-12-17T00:19:17.098Z,75
2022-12-17T00:21:48.473Z,75
2022-12-17T00:24:18.795Z,74
2022-12-17T00:26:50.754Z,73
2022-12-17T00:29:20.416Z,74
2022-12-17T00:31:52.568Z,74
2022-12-17T00:34:24.053Z,75
2022-12-17T00:36:54.280Z,75
2022-12-17T00:39:24.607Z,75
2022-12-17T00:41:55.166Z,75
2022-12-17T00:44:25.619Z,75
2022-12-17T00:46:56.430Z,75
2022-12-17T00:49:27.048Z,76
2022-12-17T00:51:59.141Z,77
2022-12-17T00:54:31.081Z,76
2022-12-17T00:57:02.802Z,77
2022-12-17T00:59:34.188Z,77
2022-12-17T01:02:04.974Z,77
2022-12-17T01:04:36.443Z,77
2022-12-17T01:07:07.032Z,77
2022-12-17T01:09:38.729Z,76
2022-12-17T01:12:08.920Z,77
2022-12-17T01:14:39.648Z,76
2022-12-17T01:17:10.505Z,78
2022-12-17T01:19:41.764Z,78
2022-12-17T01:22:12.759Z,78
2022-12-17T01:24:45.063Z,78
2022-12-17T01:27:16.266Z,80
2022-12-17T01:29:48.645Z,79
2022-12-17T01:32:20.967Z,80
2022-12-17T01:34:52.732Z,80
2022-12-17T01:37:23.801Z,80
2022-12-17T01:39:55.500Z,81
2022-12-17T01:42:26.160Z,81
2022-12-17T01:44:56.545Z,80
2022-12-17T01:47:27.516Z,79
2022-12-17T01:49:58.884Z,79
2022-12-17T01:52:29.996Z,80
2022-12-17T01:55:00.194Z,80
2022-12-17T01:57:31.537Z,80
2022-12-17T02:00:03.497Z,79
2022-12-17T02:02:34.394Z,80
2022-12-17T02:05:05.350Z,79
2022-12-17T02:07:36.379Z,80
2022-12-17T02:10:07.240Z,80
2022-12-17T02:12:38.338Z,79
2022-12-17T02:15:09.353Z,79
2022-12-17T02:17:40.509Z,79
2022-12-17T02:20:11.378Z,80
2022-12-17T02:22:42.703Z,80
2022-12-17T02:25:13.280Z,79
2022-12-17T02:27:44.535Z,80
2022-12-17T02:30:14.954Z,80
2022-12-17T02:32:48.216Z,80
2022-12-17T02:35:19.018Z,80
2022-12-17T02:37:49.858Z,80
2022-12-17T02:40:20.560Z,81
2022-12-17T02:42:51.381Z,81
2022-12-17T02:45:22.350Z,82
2022-12-17T02:47:53.517Z,82
2022-12-17T02:50:24.773Z,83
2022-12-17T02:52:56.522Z,83
2022-12-17T02:55:28.078Z,83
2022-12-17T02:57:59.399Z,83
2022-12-17T03:00:30.297Z,83
2022-12-17T03:03:01.119Z,83
2022-12-17T03:05:44.842Z,83
2022-12-17T03:08:04.754Z,83
2022-12-17T03:10:35.794Z,83
2022-12-17T03:13:06.909Z,83
2022-12-17T03:15:38.379Z,82
2022-12-17T03:18:09.841Z,82
2022-12-17T03:20:40.976Z,82
2022-12-17T03:23:11.530Z,82
2022-12-17T03:25:42.471Z,82
2022-12-17T03:28:15.087Z,82
2022-12-17T03:30:49.029Z,83
2022-12-17T03:33:17.910Z,83
2022-12-17T03:35:49.097Z,83
2022-12-17T03:38:18.936Z,82
2022-12-17T03:40:49.746Z,82
2022-12-17T03:43:20.955Z,83
2022-12-17T03:45:52.131Z,83
2022-12-17T03:48:21.809Z,83
2022-12-17T03:50:52.797Z,83
2022-12-17T03:53:23.614Z,82
2022-12-17T03:55:55.019Z,83
2022-12-17T03:58:26.502Z,82
2022-12-17T04:00:57.094Z,82
2022-12-17T04:03:29.148Z,82
2022-12-17T04:06:00.156Z,82
2022-12-17T04:08:31.254Z,82
2022-12-17T04:11:00.387Z,82
2022-12-17T04:13:35.959Z,82
2022-12-17T04:16:04.280Z,82
2022-12-17T04:18:37.234Z,82
2022-12-17T04:21:08.994Z,82
2022-12-17T04:23:41.128Z,82
2022-12-17T04:26:13.279Z,82
2022-12-17T04:28:44.598Z,81
2022-12-17T04:31:15.693Z,82
2022-12-17T04:33:46.592Z,83
2022-12-17T04:36:18.314Z,83
2022-12-17T04:38:49.470Z,83
2022-12-17T04:41:21.579Z,83
2022-12-17T04:43:54.276Z,83
2022-12-17T04:46:23.597Z,83
2022-12-17T04:48:55.189Z,82
2022-12-17T04:51:25.931Z,83
2022-12-17T04:53:58.370Z,83
2022-12-17T04:56:29.301Z,82
2022-12-17T04:58:59.757Z,81
2022-12-17T05:01:30.652Z,80
2022-12-17T05:04:01.585Z,80
2022-12-17T05:06:32.256Z,79
2022-12-17T05:09:03.054Z,79
2022-12-17T05:11:34.918Z,79
2022-12-17T05:14:06.171Z,78
2022-12-17T05:16:37.400Z,77
2022-12-17T05:19:09.085Z,78
2022-12-17T05:21:39.781Z,78
2022-12-17T05:24:10.588Z,78
2022-12-17T05:26:42.068Z,78
2022-12-17T05:29:15.949Z,77
2022-12-17T05:31:45.215Z,77
2022-12-17T05:34:16.378Z,77
2022-12-17T05:36:48.495Z,77
2022-12-17T05:39:20.217Z,77
2022-12-17T05:41:51.640Z,77
2022-12-17T05:44:22.327Z,77
2022-12-17T05:46:53.114Z,78
2022-12-17T05:49:24.592Z,78
2022-12-17T05:51:57.088Z,77
2022-12-17T05:54:27.867Z,77
2022-12-17T05:56:58.061Z,77
2022-12-17T05:59:29.092Z,77
2022-12-17T06:02:00.462Z,78
2022-12-17T06:04:31.438Z,78
2022-12-17T06:07:01.863Z,78
2022-12-17T06:09:33.430Z,78
2022-12-17T06:12:04.129Z,78
2022-12-17T06:14:35.069Z,79
2022-12-17T06:17:06.529Z,79
2022-12-17T06:19:37.328Z,79
2022-12-17T06:22:09.417Z,79
2022-12-17T06:24:44.224Z,78
2022-12-17T06:27:11.332Z,78
2022-12-17T06:29:42.485Z,79
2022-12-17T06:32:13.176Z,79
2022-12-17T06:34:44.167Z,79
2022-12-17T06:37:15.050Z,78
2022-12-17T06:39:46.154Z,79
2022-12-17T06:42:17.327Z,79
2022-12-17T06:44:48.820Z,79
2022-12-17T06:47:20.295Z,79
2022-12-17T06:49:55.456Z,79
2022-12-17T06:52:23.842Z,79
2022-12-17T06:54:54.530Z,80
2022-12-17T06:57:25.476Z,79
2022-12-17T06:59:56.424Z,80
2022-12-17T07:02:31.131Z,80
2022-12-17T07:05:01.687Z,79
2022-12-17T07:07:32.643Z,79
2022-12-17T07:10:06.893Z,79
2022-12-17T07:12:35.295Z,78
2022-12-17T07:15:07.318Z,77
2022-12-17T07:17:38.134Z,78
2022-12-17T07:20:08.634Z,79
2022-12-17T07:22:38.881Z,79
2022-12-17T07:25:09.500Z,78
2022-12-17T07:27:42.190Z,78
2022-12-17T07:30:13.970Z,78
2022-12-17T07:32:45.312Z,78
2022-12-17T07:35:17.634Z,77
2022-12-17T07:37:49.361Z,77
2022-12-17T07:40:20.366Z,76
2022-12-17T07:42:51.494Z,77
2022-12-17T07:45:22.050Z,77
2022-12-17T07:47:53.054Z,77
2022-12-17T07:50:24.198Z,78
2022-12-17T07:52:54.612Z,78
2022-12-17T07:55:25.187Z,78
2022-12-17T07:57:55.643Z,77
2022-12-17T08:00:26.952Z,77
2022-12-17T08:02:57.519Z,78
2022-12-17T08:05:28.098Z,77
2022-12-17T08:08:01.988Z,78
2022-12-17T08:10:32.234Z,77
2022-12-17T08:13:02.910Z,78
2022-12-17T08:15:33.656Z,77
2022-12-17T08:18:04.317Z,77
2022-12-17T08:20:35.803Z,77
2022-12-17T08:23:06.537Z,77
2022-12-17T08:25:39.025Z,77
2022-12-17T08:28:33.779Z,78
2022-12-17T08:30:46.474Z,77
2022-12-17T08:33:17.495Z,78
2022-12-17T08:35:48.325Z,77
2022-12-17T08:38:18.740Z,77
2022-12-17T08:40:50.714Z,76
2022-12-17T08:43:23.127Z,77
2022-12-17T08:45:55.143Z,77
2022-12-17T08:48:27.006Z,77
2022-12-17T08:50:58.129Z,76
2022-12-17T08:53:33.344Z,76
2022-12-17T08:56:00.208Z,76
2022-12-17T08:58:30.465Z,76
2022-12-17T09:01:02.173Z,76
2022-12-17T09:03:32.955Z,76
2022-12-17T09:06:04.992Z,76
2022-12-17T09:08:36.482Z,77
2022-12-17T09:11:07.860Z,77
2022-12-17T09:13:40.253Z,77
2022-12-17T09:16:12.756Z,77
2022-12-17T09:18:45.356Z,76
2022-12-17T09:21:16.591Z,77
2022-12-17T09:23:47.810Z,76
2022-12-17T09:26:20.223Z,77
2022-12-17T09:28:51.784Z,77
2022-12-17T09:31:24.033Z,77
2022-12-17T09:33:58.714Z,76
2022-12-17T09:36:30.999Z,76
2022-12-17T09:39:03.648Z,77
2022-12-17T09:41:35.085Z,76
2022-12-17T09:44:06.329Z,76
2022-12-17T09:46:37.427Z,76
2022-12-17T09:49:08.558Z,75
2022-12-17T09:51:40.975Z,75
2022-12-17T09:54:14.921Z,74
2022-12-17T09:56:46.396Z,75
2022-12-17T09:59:18.439Z,74
2022-12-17T10:01:49.847Z,75
2022-12-17T10:04:22.200Z,74
2022-12-17T10:06:54.724Z,74
2022-12-17T10:09:26.243Z,73
2022-12-17T10:11:57.386Z,73
2022-12-17T10:14:28.327Z,74
2022-12-17T10:16:59.521Z,74
2022-12-17T10:19:32.253Z,72
2022-12-17T10:22:03.674Z,73
2022-12-17T10:24:35.542Z,72
2022-12-17T10:27:07.245Z,73
2022-12-17T10:29:41.244Z,73
2022-12-17T10:32:09.395Z,72
2022-12-17T10:34:40.892Z,71
2022-12-17T10:37:12.273Z,71
2022-12-17T10:39:44.239Z,72
2022-12-17T10:42:14.528Z,73
2022-12-17T10:44:46.201Z,72
2022-12-17T10:47:17.538Z,71
2022-12-17T10:49:48.363Z,72
2022-12-17T10:52:19.078Z,70
2022-12-17T10:54:50.177Z,72
2022-12-17T10:57:21.531Z,71
2022-12-17T10:59:52.318Z,71
2022-12-17T11:02:24.604Z,71
2022-12-17T11:04:57.547Z,72
2022-12-17T11:07:29.123Z,72
2022-12-17T11:10:02.463Z,71
2022-12-17T11:12:31.458Z,72
2022-12-17T11:15:03.145Z,71
2022-12-17T11:17:33.856Z,71
2022-12-17T11:20:04.646Z,72
2022-12-17T11:22:36.478Z,72
2022-12-17T11:25:07.493Z,72
2022-12-17T11:27:38.151Z,73
2022-12-17T11:30:12.900Z,72
2022-12-17T11:32:44.419Z,72
2022-12-17T11:35:17.025Z,72
2022-12-17T11:37:49.247Z,72
2022-12-17T11:40:20.498Z,72
2022-12-17T11:42:51.614Z,72
2022-12-17T11:45:23.280Z,72
2022-12-17T11:47:58.977Z,72
2022-12-17T11:50:26.083Z,72
2022-12-17T11:52:56.746Z,72
2022-12-17T11:55:28.779Z,72
2022-12-17T11:57:58.383Z,72
2022-12-17T12:00:30.496Z,71
2022-12-17T12:03:01.984Z,71
2022-12-17T12:05:32.890Z,70
2022-12-17T12:08:03.858Z,71
2022-12-17T12:10:36.105Z,71
2022-12-17T12:13:07.204Z,70
2022-12-17T12:15:39.361Z,71
2022-12-17T12:18:10.036Z,71
2022-12-17T12:20:41.751Z,71
2022-12-17T12:23:12.795Z,70
2022-12-17T12:25:42.739Z,71
2022-12-17T12:28:15.005Z,70
2022-12-17T12:30:47.810Z,70
2022-12-17T12:33:19.010Z,70
2022-12-17T12:35:49.985Z,69
2022-12-17T12:38:20.800Z,70
2022-12-17T12:40:51.676Z,70
2022-12-17T12:43:24.052Z,71
2022-12-17T12:45:53.583Z,69
2022-12-17T12:48:25.308Z,70
2022-12-17T12:50:56.162Z,69
2022-12-17T12:53:27.746Z,70
2022-12-17T12:55:59.614Z,71
2022-12-17T12:58:30.837Z,70
2022-12-17T13:01:02.813Z,71
2022-12-17T13:03:39.494Z,71
2022-12-17T13:06:06.720Z,70
2022-12-17T13:08:38.491Z,70
2022-12-17T13:11:10.656Z,70
2022-12-17T13:13:42.950Z,69
2022-12-17T13:16:14.501Z,70
2022-12-17T13:18:46.081Z,69
2022-12-17T13:21:16.819Z,69
2022-12-17T13:23:49.302Z,69
2022-12-17T13:26:21.625Z,69
2022-12-17T13:28:52.100Z,69
2022-12-17T13:31:23.025Z,70
2022-12-17T13:33:54.249Z,69
2022-12-17T13:36:25.817Z,69
2022-12-17T13:38:57.293Z,69
2022-12-17T13:41:29.547Z,68
2022-12-17T13:44:00.564Z,69
